Time;durP1;ratioP1;P1;durP2;ratioP2;P2;SDS_P1;SDS_P2;PMS_P1;PMS_P2;Temp;Humidity;BMP_temperature;BMP_pressure;BME280_temperature;BME280_humidity;BME280_pressure;Samples;Min_cycle;Max_cycle;Signal;HPM_P1;HPM_P2
2022/06/06 00:02:29;;;;;;;1999.90;999.90;;;16.40;99.90;;;;;;5096057;28;20058;-71
2022/06/06 00:04:57;;;;;;;1999.90;999.90;;;16.80;99.90;;;;;;5113588;28;20093;-71
2022/06/06 00:07:23;;;;;;;;;;;16.80;99.90;;;;;;5113655;28;20456;-71
2022/06/06 00:09:49;;;;;;;1999.90;999.90;;;16.10;99.90;;;;;;5078452;28;19930;-71
2022/06/06 00:12:16;;;;;;;1999.90;999.90;;;16.70;99.90;;;;;;5095722;28;20043;-71
2022/06/06 00:14:42;;;;;;;1999.90;978.60;;;16.20;99.90;;;;;;5113416;28;20050;-71
2022/06/06 00:17:08;;;;;;;1999.90;999.90;;;16.70;99.90;;;;;;5094398;28;20056;-71
2022/06/06 00:19:34;;;;;;;1999.90;999.90;;;16.20;99.90;;;;;;5112886;28;20282;-73
2022/06/06 00:22:00;;;;;;;1999.90;999.90;;;16.60;99.90;;;;;;5112874;28;20143;-71
2022/06/06 00:24:26;;;;;;;1999.90;999.90;;;16.30;99.90;;;;;;5113536;28;20100;-71
2022/06/06 00:26:52;;;;;;;1999.90;985.83;;;16.50;99.90;;;;;;5112660;28;20047;-70
2022/06/06 00:29:20;;;;;;;1999.90;999.90;;;15.90;99.90;;;;;;5095083;28;20148;-70
2022/06/06 00:37:17;;;;;;;1999.90;999.90;;;15.90;99.90;;;;;;5112784;28;20167;-71
2022/06/06 00:39:44;;;;;;;1999.90;999.90;;;15.90;99.90;;;;;;5112667;28;20047;-71
2022/06/06 00:42:14;;;;;;;1999.90;998.58;;;15.90;99.90;;;;;;5113151;28;20047;-71
2022/06/06 00:44:40;;;;;;;1999.90;999.90;;;15.90;99.90;;;;;;5094716;28;20039;-73
2022/06/06 00:47:11;;;;;;;1999.90;999.90;;;16.10;99.90;;;;;;5113521;28;20043;-70
2022/06/06 00:49:49;;;;;;;1999.90;999.90;;;15.90;99.90;;;;;;5112504;28;20140;-70
2022/06/06 00:52:22;;;;;;;1999.90;999.90;;;16.10;99.90;;;;;;5094292;28;20089;-71
2022/06/06 00:54:50;;;;;;;1999.90;999.90;;;16.50;99.90;;;;;;5112767;28;20039;-70
2022/06/06 00:57:22;;;;;;;1999.90;999.90;;;15.90;99.90;;;;;;5112103;28;20071;-70
2022/06/06 00:59:49;;;;;;;1999.90;999.90;;;16.00;99.90;;;;;;5112431;28;20113;-70
2022/06/06 01:02:16;;;;;;;1999.90;999.90;;;16.40;99.90;;;;;;5112683;28;20477;-70
2022/06/06 01:04:42;;;;;;;1999.90;999.90;;;16.10;99.90;;;;;;5094238;28;20083;-71
2022/06/06 01:07:10;;;;;;;1999.90;999.90;;;16.30;99.90;;;;;;5093559;28;20446;-71
2022/06/06 01:09:38;;;;;;;1999.90;999.90;;;16.30;99.90;;;;;;5112465;28;20126;-73
2022/06/06 01:12:11;;;;;;;1999.90;999.90;;;16.00;99.90;;;;;;5111862;28;20122;-70
2022/06/06 01:14:48;;;;;;;1999.90;931.22;;;15.90;99.90;;;;;;5112199;28;20503;-71
2022/06/06 01:17:33;;;;;;;1999.90;999.90;;;15.70;99.90;;;;;;5111910;28;20126;-71
2022/06/06 01:20:14;;;;;;;1999.90;973.45;;;16.20;99.90;;;;;;5112231;28;20044;-70
2022/06/06 01:22:52;;;;;;;1999.90;999.90;;;16.00;99.90;;;;;;5112122;28;20054;-71
2022/06/06 01:25:26;;;;;;;1999.90;999.90;;;15.70;99.90;;;;;;5112074;28;20056;-71
2022/06/06 01:28:05;;;;;;;1999.90;999.90;;;15.80;99.90;;;;;;5111417;28;20057;-71
2022/06/06 01:30:41;;;;;;;1999.90;999.90;;;16.00;99.90;;;;;;5112079;28;20039;-70
2022/06/06 01:33:12;;;;;;;1999.90;999.90;;;15.70;99.90;;;;;;5112071;28;20185;-70
2022/06/06 01:35:41;;;;;;;1999.90;987.13;;;15.80;99.90;;;;;;5111418;28;20055;-70
2022/06/06 01:38:08;;;;;;;1999.90;999.90;;;15.70;99.90;;;;;;5111740;28;20047;-71
2022/06/06 01:40:45;;;;;;;1999.90;999.90;;;16.10;99.90;;;;;;5111698;28;20051;-71
2022/06/06 01:43:16;;;;;;;1999.90;999.90;;;15.80;99.90;;;;;;5112017;28;20577;-71
2022/06/06 01:45:52;;;;;;;1999.90;999.90;;;15.70;99.90;;;;;;5111394;28;20094;-71
2022/06/06 01:48:23;;;;;;;1999.90;999.90;;;15.80;99.90;;;;;;5111707;28;20051;-71
2022/06/06 01:50:49;;;;;;;1999.90;999.90;;;15.90;99.90;;;;;;5111603;28;20047;-71
2022/06/06 01:53:21;;;;;;;1999.90;999.90;;;16.00;99.90;;;;;;5093484;28;20044;-70
2022/06/06 01:55:49;;;;;;;1999.90;999.90;;;16.00;99.90;;;;;;5110880;28;20119;-72
2022/06/06 01:58:27;;;;;;;1999.90;893.10;;;15.70;99.90;;;;;;5111435;28;20388;-71
2022/06/06 02:00:53;;;;;;;1999.90;999.90;;;15.80;99.90;;;;;;5093461;28;20048;-71
2022/06/06 02:03:19;;;;;;;1999.90;999.90;;;15.70;99.90;;;;;;5111929;28;20047;-71
2022/06/06 02:05:45;;;;;;;1999.90;999.90;;;15.50;99.90;;;;;;5093037;28;20387;-71
2022/06/06 02:08:12;;;;;;;1999.90;999.90;;;15.50;99.90;;;;;;5111454;28;20122;-71
2022/06/06 02:10:38;;;;;;;1999.90;999.90;;;15.70;99.90;;;;;;5111282;28;20135;-71
2022/06/06 02:13:04;;;;;;;1999.90;999.90;;;15.60;99.90;;;;;;5111340;28;20101;-70
2022/06/06 02:15:31;;;;;;;1999.90;999.90;;;15.30;99.90;;;;;;5111058;28;20452;-70
2022/06/06 02:17:57;;;;;;;1999.90;999.90;;;15.70;99.90;;;;;;5092959;28;20054;-71
2022/06/06 02:20:25;;;;;;;1999.90;999.90;;;15.40;99.90;;;;;;5111426;28;20051;-71
2022/06/06 02:22:52;;;;;;;1999.90;999.90;;;15.60;99.90;;;;;;5111029;28;20480;-71
2022/06/06 02:25:18;;;;;;;1999.90;999.90;;;15.70;99.90;;;;;;5092513;28;20054;-71
2022/06/06 02:27:44;;;;;;;1999.90;999.90;;;15.50;99.90;;;;;;5111057;28;20138;-71
2022/06/06 02:30:16;;;;;;;1999.90;999.90;;;15.30;99.90;;;;;;5111083;28;20492;-70
2022/06/06 02:32:43;;;;;;;1999.90;999.90;;;15.50;99.90;;;;;;5111702;28;20044;-70
2022/06/06 02:35:17;;;;;;;1999.90;999.90;;;15.20;99.90;;;;;;5110900;28;20162;-70
2022/06/06 02:37:44;;;;;;;1999.90;976.30;;;15.20;99.90;;;;;;5111339;28;20095;-71
2022/06/06 02:40:12;;;;;;;1999.90;999.90;;;15.20;99.90;;;;;;5110771;28;20043;-71
2022/06/06 02:42:38;;;;;;;1999.90;999.90;;;15.40;99.90;;;;;;5111201;28;20051;-70
2022/06/06 02:45:12;;;;;;;1999.90;999.90;;;15.70;99.90;;;;;;5111029;28;20473;-71
2022/06/06 02:47:38;;;;;;;1999.90;999.90;;;15.30;99.90;;;;;;5111027;28;20123;-70
2022/06/06 02:50:06;;;;;;;1999.90;999.90;;;15.20;99.90;;;;;;5111002;28;20075;-70
2022/06/06 02:52:33;;;;;;;;;;;15.60;99.90;;;;;;5111687;28;20051;-71
2022/06/06 02:55:00;;;;;;;1999.90;974.35;;;15.60;99.90;;;;;;5110167;28;20010;-70
2022/06/06 02:57:26;;;;;;;1999.90;962.95;;;15.30;99.90;;;;;;5110866;28;20108;-71
2022/06/06 02:59:54;;;;;;;1999.90;999.90;;;15.60;99.90;;;;;;5110948;28;20138;-70
2022/06/06 03:02:19;;;;;;;;;;;15.20;99.90;;;;;;5115411;28;20143;-70
2022/06/06 03:04:45;;;;;;;1999.90;999.90;;;15.30;99.90;;;;;;5115183;28;20003;-70
2022/06/06 03:07:49;;;;;;;1999.90;999.90;;;15.30;99.90;;;;;;5114223;28;20364;-70
2022/06/06 03:10:23;;;;;;;1999.90;984.92;;;15.30;99.90;;;;;;5029212;28;20055;-70
2022/06/06 03:13:03;;;;;;;1999.90;999.90;;;15.60;99.90;;;;;;5114933;28;20043;-70
2022/06/06 03:15:41;;;;;;;1999.90;999.90;;;15.30;99.90;;;;;;5096674;28;20079;-70
2022/06/06 03:21:13;;;;;;;1999.90;999.90;;;15.70;99.90;;;;;;5096095;28;20281;-70
2022/06/06 03:24:07;;;;;;;1999.90;864.53;;;15.70;99.90;;;;;;5114510;28;20124;-71
2022/06/06 03:26:36;;;;;;;1999.90;999.90;;;15.70;99.90;;;;;;5114306;28;20054;-71
2022/06/06 03:29:08;;;;;;;1999.90;986.42;;;15.70;99.90;;;;;;5113662;28;20090;-72
2022/06/06 03:32:19;;;;;;;1999.90;955.25;;;15.30;99.90;;;;;;5114414;28;20047;-71
2022/06/06 03:35:06;;;;;;;1999.90;999.90;;;15.80;99.90;;;;;;5011285;28;20052;-72
2022/06/06 03:38:06;;;;;;;1999.90;802.83;;;15.50;99.90;;;;;;5114526;28;20077;-72
2022/06/06 03:40:36;;;;;;;1999.90;919.90;;;15.80;99.90;;;;;;5100228;28;20047;-72
2022/06/06 03:43:44;;;;;;;1999.90;999.90;;;15.70;99.90;;;;;;5096050;28;20067;-73
2022/06/06 03:46:19;;;;;;;1999.90;947.28;;;15.40;99.90;;;;;;5114102;28;20076;-70
2022/06/06 03:49:38;;;;;;;1999.90;742.38;;;15.80;99.90;;;;;;5114084;28;20054;-71
2022/06/06 03:52:27;;;;;;;1999.90;691.83;;;15.60;99.90;;;;;;5010861;28;20545;-71
2022/06/06 03:55:11;;;;;;;1999.90;859.80;;;15.20;99.90;;;;;;5105447;28;20108;-71
2022/06/06 03:57:38;;;;;;;1999.90;908.67;;;15.50;99.90;;;;;;5096443;28;20059;-72
2022/06/06 04:00:14;;;;;;;1999.90;854.40;;;15.10;99.90;;;;;;5113134;28;20040;-74
2022/06/06 04:02:42;;;;;;;1999.90;999.90;;;15.00;99.90;;;;;;5113964;28;20059;-72
2022/06/06 04:05:14;;;;;;;1999.90;999.90;;;15.00;99.90;;;;;;5113774;28;20039;-72
2022/06/06 04:07:40;;;;;;;1999.90;999.90;;;15.50;99.90;;;;;;5114066;28;20090;-72
2022/06/06 04:10:07;;;;;;;1999.90;999.90;;;15.20;99.90;;;;;;5112592;28;20128;-72
2022/06/06 04:12:32;;;;;;;1999.90;987.80;;;14.90;99.90;;;;;;5112205;28;20480;-73
2022/06/06 04:15:11;;;;;;;1999.90;999.90;;;15.00;99.90;;;;;;5113663;28;20048;-71
2022/06/06 04:17:43;;;;;;;1999.90;979.80;;;15.40;99.90;;;;;;5095476;28;20135;-71
2022/06/06 04:20:17;;;;;;;1999.90;931.38;;;15.30;99.90;;;;;;5095090;28;20371;-72
2022/06/06 04:22:52;;;;;;;1999.90;999.90;;;15.00;99.90;;;;;;5113461;28;20362;-73
2022/06/06 04:25:46;;;;;;;1999.90;999.90;;;14.90;99.90;;;;;;5112713;28;20409;-72
2022/06/06 04:28:34;;;;;;;1999.90;999.90;;;14.80;99.90;;;;;;5095283;28;20055;-72
2022/06/06 04:31:23;;;;;;;1999.90;999.90;;;15.10;99.90;;;;;;5113189;28;20040;-72
2022/06/06 04:34:00;;;;;;;1999.90;984.22;;;14.90;99.90;;;;;;5113416;28;20048;-71
2022/06/06 04:36:35;;;;;;;1999.90;999.90;;;15.30;99.90;;;;;;5094556;28;20173;-72
2022/06/06 04:39:04;;;;;;;1999.90;999.90;;;14.80;99.90;;;;;;5113262;28;20100;-73
2022/06/06 04:41:45;;;;;;;1999.90;999.90;;;15.20;99.90;;;;;;5112588;28;20046;-73
2022/06/06 04:44:33;;;;;;;1999.90;942.75;;;14.70;99.90;;;;;;5113133;28;20074;-71
2022/06/06 04:47:18;;;;;;;1999.90;976.78;;;14.60;99.90;;;;;;5095088;28;20168;-72
2022/06/06 04:49:45;;;;;;;1999.90;999.90;;;15.20;99.90;;;;;;5112924;28;20099;-72
2022/06/06 04:52:12;;;;;;;1999.90;999.90;;;15.20;99.90;;;;;;5112426;28;20051;-73
2022/06/06 04:54:41;;;;;;;1999.90;979.72;;;15.10;99.90;;;;;;5112820;28;20184;-75
2022/06/06 04:57:08;;;;;;;1999.90;999.90;;;14.60;99.90;;;;;;5112633;28;20476;-75
2022/06/06 04:59:37;;;;;;;1999.90;999.90;;;15.20;99.90;;;;;;5112713;28;20059;-75
2022/06/06 05:02:04;;;;;;;1999.90;999.90;;;15.20;99.90;;;;;;5094630;28;20510;-73
2022/06/06 05:04:29;;;;;;;1999.90;999.90;;;14.70;99.90;;;;;;5112806;28;20126;-73
2022/06/06 05:07:13;;;;;;;1999.90;970.50;;;15.10;99.90;;;;;;5112338;28;20139;-73
2022/06/06 05:09:57;;;;;;;1999.90;999.90;;;14.70;99.90;;;;;;5112749;28;20058;-75
2022/06/06 05:12:25;;;;;;;1999.90;998.72;;;15.20;99.90;;;;;;5111633;28;20192;-72
2022/06/06 05:15:03;;;;;;;1999.90;999.90;;;15.00;99.90;;;;;;5112623;28;20054;-72
2022/06/06 05:17:38;;;;;;;1999.90;999.90;;;14.70;99.90;;;;;;5112377;28;20453;-73
2022/06/06 05:20:35;;;;;;;1999.90;999.90;;;14.60;99.90;;;;;;5112879;28;20357;-73
2022/06/06 05:23:22;;;;;;;1999.90;960.42;;;14.70;99.90;;;;;;5112162;28;20134;-73
2022/06/06 05:26:03;;;;;;;1999.90;999.90;;;15.30;99.90;;;;;;5093502;28;20130;-72
2022/06/06 05:28:47;;;;;;;1999.90;999.90;;;14.90;99.90;;;;;;5093853;28;20047;-72
2022/06/06 05:31:31;;;;;;;1999.90;994.75;;;14.90;99.90;;;;;;5111841;28;20411;-73
2022/06/06 05:34:17;;;;;;;1999.90;999.90;;;15.10;99.90;;;;;;5111212;28;20047;-73
2022/06/06 05:37:14;;;;;;;1999.90;999.90;;;14.70;99.90;;;;;;5111451;28;20042;-72
2022/06/06 05:39:47;;;;;;;1999.90;999.90;;;14.60;99.90;;;;;;5111469;28;20480;-72
2022/06/06 05:42:24;;;;;;;1999.90;999.90;;;14.60;99.90;;;;;;5093403;28;20060;-75
2022/06/06 05:44:59;;;;;;;1999.90;999.90;;;15.00;99.90;;;;;;5112113;28;20055;-72
2022/06/06 05:47:55;;;;;;;1999.90;961.25;;;14.90;99.90;;;;;;5110698;28;20044;-73
2022/06/06 05:50:52;;;;;;;1999.90;999.90;;;15.00;99.90;;;;;;5111166;28;20047;-72
2022/06/06 05:53:18;;;;;;;1999.90;999.90;;;14.40;99.90;;;;;;5109650;28;20048;-72
2022/06/06 05:55:46;;;;;;;1999.90;999.90;;;14.50;99.90;;;;;;5111370;28;20093;-73
2022/06/06 05:58:30;;;;;;;1999.90;999.90;;;15.10;99.90;;;;;;5111640;28;20046;-72
2022/06/06 06:01:17;;;;;;;1999.90;999.90;;;15.10;99.90;;;;;;5111512;28;20043;-71
2022/06/06 06:03:43;;;;;;;1999.90;999.90;;;14.40;99.90;;;;;;5110894;28;20551;-71
2022/06/06 06:06:25;;;;;;;1999.90;969.10;;;14.80;99.90;;;;;;5111355;28;20082;-71
2022/06/06 06:09:13;;;;;;;1999.90;782.22;;;14.60;99.90;;;;;;5111574;28;20047;-71
2022/06/06 06:12:08;;;;;;;1999.90;651.65;;;14.60;99.90;;;;;;5110018;28;20043;-71
2022/06/06 06:14:56;;;;;;;1999.90;853.13;;;15.10;99.90;;;;;;5110776;28;20062;-73
2022/06/06 06:17:26;;;;;;;1999.90;880.72;;;15.10;99.90;;;;;;5110679;28;20550;-71
2022/06/06 06:20:08;;;;;;;1999.90;859.30;;;15.10;99.90;;;;;;5093046;28;20054;-72
2022/06/06 06:22:47;;;;;;;1999.90;999.90;;;14.60;99.90;;;;;;5110860;28;20047;-72
2022/06/06 06:25:15;;;;;;;1999.90;845.20;;;14.50;99.90;;;;;;5111080;28;20070;-72
2022/06/06 06:27:43;;;;;;;1999.90;999.90;;;14.40;99.90;;;;;;5110879;28;20039;-72
2022/06/06 06:30:11;;;;;;;1999.90;999.90;;;14.70;99.90;;;;;;5111042;28;20054;-72
2022/06/06 06:32:49;;;;;;;1999.90;999.90;;;15.10;99.90;;;;;;5091844;28;20050;-72
2022/06/06 06:35:41;;;;;;;1999.90;999.90;;;14.80;99.90;;;;;;5111364;28;20043;-72
2022/06/06 06:38:13;;;;;;;1999.90;999.90;;;14.60;99.90;;;;;;5116005;28;20047;-72
2022/06/06 06:41:11;;;;;;;1999.90;999.90;;;15.20;99.90;;;;;;5113951;28;20075;-71
2022/06/06 06:44:07;;;;;;;1999.90;999.90;;;15.20;99.90;;;;;;5082536;28;20451;-72
2022/06/06 06:46:42;;;;;;;1999.90;999.90;;;15.30;99.90;;;;;;5115175;28;20050;-71
2022/06/06 06:49:29;;;;;;;1999.90;999.90;;;15.20;99.90;;;;;;5115551;28;20098;-71
2022/06/06 06:52:03;;;;;;;1999.90;999.90;;;15.30;99.90;;;;;;5115079;28;20047;-71
2022/06/06 06:54:54;;;;;;;1999.90;984.78;;;14.60;99.90;;;;;;5114768;28;20103;-71
2022/06/06 06:57:31;;;;;;;1999.90;999.90;;;14.90;99.90;;;;;;5115257;28;20123;-72
2022/06/06 07:00:00;;;;;;;1999.90;995.72;;;15.60;99.90;;;;;;5115079;28;20404;-71
2022/06/06 07:08:44;;;;;;;1999.90;999.90;;;15.90;99.90;;;;;;5114849;28;20066;-72
2022/06/06 07:11:28;;;;;;;1999.90;999.90;;;15.30;99.90;;;;;;5113518;28;20086;-72
2022/06/06 07:14:08;;;;;;;1999.90;999.90;;;16.00;99.90;;;;;;5114801;28;20126;-72
2022/06/06 07:16:37;;;;;;;1999.90;999.90;;;16.50;99.90;;;;;;5114404;28;20055;-72
2022/06/06 07:19:08;;;;;;;1999.90;999.90;;;17.10;99.90;;;;;;5096207;28;20134;-72
2022/06/06 07:21:35;;;;;;;1999.90;999.90;;;18.10;99.90;;;;;;5113259;28;20047;-71
2022/06/06 07:24:05;;;;;;;1999.90;999.90;;;17.60;99.90;;;;;;5113531;28;20180;-74
2022/06/06 07:26:37;;;;;;;1999.90;999.90;;;18.00;99.90;;;;;;5095085;28;20040;-72
2022/06/06 07:29:05;;;;;;;1999.90;999.90;;;16.50;99.90;;;;;;5096748;28;20501;-72
2022/06/06 07:31:31;;;;;;;;;;;17.10;99.90;;;;;;5114498;28;20044;-71
2022/06/06 07:34:19;;;;;;;1999.90;814.28;;;16.60;99.90;;;;;;5114435;28;19943;-71
2022/06/06 07:37:15;;;;;;;1999.90;999.90;;;16.60;99.90;;;;;;5113644;28;20079;-72
2022/06/06 07:40:08;;;;;;;1999.90;928.42;;;16.30;99.90;;;;;;5094615;28;20055;-71
2022/06/06 07:42:41;;;;;;;1999.90;900.80;;;15.80;99.90;;;;;;5113703;28;20118;-72
2022/06/06 07:45:09;;;;;;;1999.90;999.90;;;16.70;99.90;;;;;;5114572;28;20059;-71
2022/06/06 07:47:54;;;;;;;1999.90;966.40;;;15.90;99.90;;;;;;5113857;28;20047;-71
2022/06/06 07:50:32;;;;;;;1999.90;725.95;;;16.10;99.90;;;;;;5114493;28;20468;-72
2022/06/06 07:53:28;;;;;;;1999.90;614.33;;;16.00;99.90;;;;;;5114292;28;20399;-72
2022/06/06 07:56:02;;;;;;;1999.90;920.35;;;15.70;99.90;;;;;;5079084;28;20388;-72
2022/06/06 07:58:45;;;;;;;1999.90;998.63;;;15.80;99.90;;;;;;5113332;28;20067;-72
2022/06/06 08:01:17;;;;;;;1999.90;999.90;;;16.70;99.90;;;;;;5113550;28;20050;-72
2022/06/06 08:03:50;;;;;;;1999.90;999.90;;;16.80;99.90;;;;;;5078907;28;20143;-72
2022/06/06 08:06:40;;;;;;;1999.90;999.90;;;17.90;99.90;;;;;;5114299;28;20138;-73
2022/06/06 08:09:23;;;;;;;1999.90;973.80;;;17.50;99.90;;;;;;5061757;28;20051;-73
2022/06/06 08:12:04;;;;;;;1999.90;463.92;;;17.20;99.90;;;;;;5113330;28;20039;-73
2022/06/06 08:15:17;;;;;;;1999.90;898.70;;;16.80;99.90;;;;;;5113410;28;20055;-74
2022/06/06 08:18:06;;;;;;;1999.90;698.97;;;16.30;99.90;;;;;;5112535;28;20062;-73
2022/06/06 08:21:05;;;;;;;1999.90;999.90;;;16.20;99.90;;;;;;5113449;28;20048;-73
2022/06/06 08:23:33;;;;;;;1843.32;646.20;;;16.20;99.90;;;;;;5113239;28;20054;-75
2022/06/06 08:26:01;;;;;;;1999.90;465.42;;;16.20;99.90;;;;;;5113082;28;20048;-75
2022/06/06 08:28:29;;;;;;;1999.90;846.60;;;16.00;99.90;;;;;;5113311;28;20039;-76
2022/06/06 08:30:56;;;;;;;1999.90;941.53;;;16.80;99.90;;;;;;5112866;28;20131;-77
2022/06/06 08:33:22;;;;;;;1999.90;309.27;;;17.40;99.90;;;;;;5113320;28;20444;-76
2022/06/06 08:36:08;;;;;;;1967.97;818.72;;;17.90;99.90;;;;;;5094633;28;20233;-77
2022/06/06 08:38:38;;;;;;;1999.90;700.88;;;18.20;99.90;;;;;;5094502;28;20384;-77
2022/06/06 08:41:15;;;;;;;1999.90;999.90;;;17.80;99.90;;;;;;5112519;28;20078;-77
2022/06/06 08:43:58;;;;;;;1999.90;776.42;;;18.30;99.90;;;;;;5093962;28;20040;-79
2022/06/06 08:46:45;;;;;;;1999.90;747.95;;;17.40;99.90;;;;;;5112714;28;20078;-81
2022/06/06 08:50:44;;;;;;;1999.90;879.05;;;17.30;99.90;;;;;;5112892;28;20542;-79
2022/06/06 08:52:42;;;;;;;1793.10;801.97;;;17.30;99.90;;;;;;5094780;28;20394;-79
2022/06/06 08:55:20;;;;;;;1999.90;556.60;;;18.40;99.90;;;;;;5112497;28;20044;-78
2022/06/06 08:58:01;;;;;;;1999.90;999.90;;;19.00;99.90;;;;;;5111718;28;20054;-81
2022/06/06 09:01:12;;;;;;;1999.90;595.78;;;19.00;99.90;;;;;;5094586;28;20096;-80
2022/06/06 09:04:24;;;;;;;1999.90;583.13;;;18.60;99.90;;;;;;5056240;28;20055;-79
2022/06/06 09:07:17;;;;;;;1999.90;999.90;;;18.90;99.90;;;;;;5113305;28;20043;-79
2022/06/06 09:09:52;;;;;;;1999.90;999.90;;;18.40;99.90;;;;;;5092933;28;20035;-80
2022/06/06 09:13:02;;;;;;;1999.90;891.43;;;18.60;99.90;;;;;;5094357;28;20086;-79
2022/06/06 09:16:04;;;;;;;1999.90;783.53;;;18.40;99.90;;;;;;5065040;28;20059;-78
2022/06/06 09:19:11;;;;;;;1999.90;845.05;;;17.70;99.90;;;;;;5094482;28;20055;-80
2022/06/06 09:21:46;;;;;;;1985.47;899.80;;;16.20;99.90;;;;;;5112078;28;20408;-79
2022/06/06 09:24:43;;;;;;;1999.90;999.90;;;16.90;99.90;;;;;;5094601;28;20083;-81
2022/06/06 09:27:40;;;;;;;1999.90;520.83;;;15.50;99.90;;;;;;5078031;28;20167;-78
2022/06/06 09:30:24;;;;;;;1999.90;999.90;;;17.40;99.90;;;;;;5077903;28;20063;-79
2022/06/06 09:33:18;;;;;;;1952.95;862.22;;;17.30;99.90;;;;;;5094916;28;20040;-79
2022/06/06 09:36:09;;;;;;;1779.60;697.47;;;17.10;99.90;;;;;;5094417;28;20050;-77
2022/06/06 09:39:02;;;;;;;1978.97;331.38;;;17.00;99.90;;;;;;5112486;28;20522;-76
2022/06/06 09:41:31;;;;;;;1939.30;346.38;;;17.10;99.90;;;;;;5111861;28;20043;-80
2022/06/06 09:44:22;;;;;;;1999.90;861.58;;;16.90;99.90;;;;;;5106456;28;20119;-75
2022/06/06 09:47:06;;;;;;;1999.90;420.63;;;16.30;99.90;;;;;;5111499;28;20047;-77
2022/06/06 09:49:48;;;;;;;1999.90;999.90;;;16.60;99.90;;;;;;5111389;28;20043;-76
2022/06/06 09:52:32;;;;;;;1468.25;595.15;;;17.50;99.90;;;;;;5111778;28;20111;-76
2022/06/06 09:59:01;;;;;;;1999.90;999.90;;;18.30;99.90;;;;;;5111806;28;20097;-77
2022/06/06 10:01:48;;;;;;;1999.90;720.47;;;18.00;99.90;;;;;;5111903;28;20054;-76
2022/06/06 10:04:34;;;;;;;1999.90;999.90;;;17.90;99.90;;;;;;5111789;28;20168;-78
2022/06/06 10:07:18;;;;;;;1999.90;545.97;;;17.10;12.20;;;;;;5111801;28;20043;-76
2022/06/06 10:10:16;;;;;;;1999.90;507.02;;;16.80;99.90;;;;;;5110600;28;20048;-80
2022/06/06 10:13:00;;;;;;;1999.90;872.75;;;16.60;97.50;;;;;;5093774;28;20127;-77
2022/06/06 10:15:47;;;;;;;1999.90;720.08;;;16.50;99.90;;;;;;5112208;28;20126;-77
2022/06/06 10:18:43;;;;;;;1999.90;615.60;;;16.50;99.90;;;;;;5091664;28;20064;-77
2022/06/06 10:21:25;;;;;;;1999.90;616.53;;;16.40;99.90;;;;;;5111850;28;20061;-75
2022/06/06 10:24:36;;;;;;;1999.90;610.75;;;16.20;99.90;;;;;;5111388;28;20043;-75
2022/06/06 10:27:27;;;;;;;1999.90;767.70;;;15.90;92.10;;;;;;5110193;28;20043;-77
2022/06/06 10:30:11;;;;;;;1999.90;852.92;;;15.80;96.40;;;;;;5111301;28;20051;-75
2022/06/06 10:33:24;;;;;;;1999.90;804.38;;;15.80;55.90;;;;;;5111791;28;20126;-75
2022/06/06 10:36:19;;;;;;;1999.90;833.25;;;15.70;60.90;;;;;;5033090;28;20052;-76
2022/06/06 10:39:29;;;;;;;1999.90;859.47;;;15.80;21.90;;;;;;5110991;28;20035;-75
2022/06/06 10:42:10;;;;;;;1999.90;584.55;;;15.90;1.00;;;;;;5110753;28;20118;-74
2022/06/06 10:45:02;;;;;;;1999.90;639.28;;;16.50;1.00;;;;;;5111308;28;20067;-76
2022/06/06 10:47:55;;;;;;;1999.90;775.28;;;17.60;1.00;;;;;;5092770;28;20130;-74
2022/06/06 10:54:06;;;;;;;1802.20;428.30;;;19.50;1.00;;;;;;5111117;28;20368;-85
2022/06/06 10:57:11;;;;;;;1999.90;691.13;;;19.80;1.00;;;;;;5110904;28;20040;-76
2022/06/06 11:00:14;;;;;;;1999.90;792.92;;;20.10;1.00;;;;;;5111520;28;20116;-75
2022/06/06 11:02:40;;;;;;;1999.90;876.70;;;20.40;1.00;;;;;;5111305;28;20046;-76
2022/06/06 11:05:08;;;;;;;1999.90;992.08;;;20.50;1.00;;;;;;5110807;28;20368;-76
2022/06/06 11:07:55;;;;;;;1999.90;993.58;;;20.10;1.00;;;;;;5111082;28;20054;-75
2022/06/06 11:11:00;;;;;;;1999.90;999.90;;;19.60;1.00;;;;;;5111038;28;20044;-75
2022/06/06 11:13:52;;;;;;;1999.90;999.90;;;19.60;1.00;;;;;;5106524;28;20564;-75
2022/06/06 11:16:44;;;;;;;1999.90;999.90;;;19.40;1.00;;;;;;5111010;28;20408;-76
2022/06/06 11:19:18;;;;;;;1999.90;999.90;;;20.20;1.00;;;;;;5110253;28;20411;-75
2022/06/06 11:22:18;;;;;;;1999.90;999.90;;;21.20;99.90;;;;;;5112756;28;20051;-74
2022/06/06 11:24:47;;;;;;;;;;;21.30;99.90;;;;;;5113174;28;20611;-74
2022/06/06 11:27:32;;;;;;;;;;;20.50;99.90;;;;;;5096755;28;19977;-75
2022/06/06 11:30:23;;;;;;;1999.90;999.90;;;20.40;99.90;;;;;;5114005;28;19930;-75
2022/06/06 11:33:08;;;;;;;1999.90;999.90;;;19.50;1.00;;;;;;5075022;28;20383;-74
2022/06/06 11:35:35;;;;;;;1999.90;999.90;;;19.00;1.00;;;;;;5114644;28;20089;-75
2022/06/06 11:38:20;;;;;;;1999.90;879.03;;;18.70;1.00;;;;;;5114487;28;20054;-76
2022/06/06 11:41:04;;;;;;;1999.90;642.30;;;18.50;1.00;;;;;;5114282;28;20052;-76
2022/06/06 11:43:48;;;;;;;1999.90;845.92;;;17.80;1.00;;;;;;5114113;28;20119;-74
2022/06/06 11:46:42;;;;;;;1999.90;504.33;;;17.40;1.00;;;;;;5114225;28;20087;-76
2022/06/06 11:49:31;;;;;;;1999.90;766.35;;;17.20;1.00;;;;;;5114047;28;20051;-75
2022/06/06 11:52:23;;;;;;;1999.90;742.85;;;17.20;1.00;;;;;;5099925;28;20048;-75
2022/06/06 11:54:51;;;;;;;1999.90;792.25;;;18.00;1.00;;;;;;5113171;28;20044;-76
2022/06/06 11:57:20;;;;;;;1999.90;816.60;;;18.60;1.00;;;;;;5113668;28;20048;-78
2022/06/06 12:00:07;;;;;;;1999.90;997.33;;;19.10;1.00;;;;;;5113927;28;20059;-76
2022/06/06 12:03:06;;;;;;;1999.90;999.90;;;19.20;1.00;;;;;;5114088;28;20075;-79
2022/06/06 12:05:46;;;;;;;1999.90;706.30;;;19.10;1.00;;;;;;5095518;28;20050;-76
2022/06/06 12:08:39;;;;;;;1999.90;863.60;;;18.80;1.00;;;;;;5113778;28;20050;-77
2022/06/06 12:11:20;;;;;;;1999.90;862.08;;;18.50;1.00;;;;;;5113220;28;20469;-76
2022/06/06 12:13:54;;;;;;;1999.90;635.80;;;18.20;1.00;;;;;;5114050;28;20047;-76
2022/06/06 12:16:49;;;;;;;1999.90;698.58;;;18.10;1.00;;;;;;5113882;28;20047;-75
2022/06/06 12:19:36;;;;;;;1999.90;755.13;;;18.20;1.00;;;;;;5112931;28;20059;-76
2022/06/06 12:22:36;;;;;;;1999.90;734.60;;;18.40;1.00;;;;;;5113375;28;20116;-75
2022/06/06 12:25:27;;;;;;;1999.90;999.42;;;18.60;1.00;;;;;;5094055;28;20047;-76
2022/06/06 12:28:30;;;;;;;1999.90;999.90;;;18.80;1.00;;;;;;5112982;28;20449;-77
2022/06/06 12:31:27;;;;;;;1999.90;999.90;;;18.90;1.00;;;;;;5113152;28;20063;-76
2022/06/06 12:34:18;;;;;;;1999.90;999.90;;;19.10;1.00;;;;;;5113108;28;20448;-78
2022/06/06 12:36:52;;;;;;;1999.90;999.90;;;19.10;1.00;;;;;;5066879;28;20411;-74
2022/06/06 12:39:42;;;;;;;1999.90;999.90;;;19.10;1.00;;;;;;5112466;28;20058;-75
2022/06/06 12:42:34;;;;;;;1999.90;999.90;;;19.10;1.00;;;;;;5078560;28;20039;-75
2022/06/06 12:45:22;;;;;;;1999.90;999.90;;;19.10;1.00;;;;;;5113020;28;20055;-75
2022/06/06 12:48:02;;;;;;;1999.90;999.90;;;18.70;99.90;;;;;;5094621;28;20124;-76
2022/06/06 12:51:00;;;;;;;1999.90;999.90;;;18.40;1.00;;;;;;5112109;28;20050;-77
2022/06/06 12:53:56;;;;;;;1999.90;999.90;;;18.20;1.00;;;;;;5113374;28;20048;-74
2022/06/06 12:56:54;;;;;;;1999.90;999.90;;;18.10;1.00;;;;;;5112175;28;20080;-74
2022/06/06 12:59:26;;;;;;;1999.90;821.50;;;17.80;1.00;;;;;;5112420;28;20065;-75
2022/06/06 13:02:01;;;;;;;1999.90;573.88;;;17.30;1.00;;;;;;5112854;28;20043;-76
2022/06/06 13:05:04;;;;;;;1999.90;836.20;;;17.00;1.00;;;;;;5113052;28;20056;-74
2022/06/06 13:07:48;;;;;;;1999.90;714.20;;;16.40;1.00;;;;;;5042960;28;20048;-77
2022/06/06 13:10:38;;;;;;;1999.90;801.75;;;15.90;99.90;;;;;;5093661;28;20050;-78
2022/06/06 13:13:09;;;;;;;1999.90;723.45;;;15.90;99.90;;;;;;5112693;28;20043;-77
2022/06/06 13:16:01;;;;;;;1999.90;841.35;;;16.10;99.90;;;;;;5112827;28;20116;-77
2022/06/06 13:18:53;;;;;;;1999.90;848.55;;;16.00;99.90;;;;;;5064231;28;20507;-77
2022/06/06 13:21:50;;;;;;;1999.90;459.42;;;15.80;1.00;;;;;;5112316;28;20525;-75
2022/06/06 13:24:37;;;;;;;1762.07;308.40;;;15.80;1.00;;;;;;5093981;28;20091;-75
2022/06/06 13:27:31;;;;;;;1999.90;772.70;;;15.80;99.90;;;;;;5112102;28;20126;-75
2022/06/06 13:30:39;;;;;;;1999.90;745.40;;;16.00;58.50;;;;;;5112478;28;20386;-76